createdAt,value
2023-03-03T00:00:34.717Z,18.30
2023-03-03T00:03:07.496Z,40.17
2023-03-03T00:05:36.904Z,22.03
2023-03-03T00:08:06.158Z,19.33
2023-03-03T00:10:34.304Z,20.10
2023-03-03T00:13:02.628Z,24.23
2023-03-03T00:15:32.496Z,17.83
2023-03-03T00:18:01.953Z,13.37
2023-03-03T00:20:37.951Z,20.67
2023-03-03T00:23:18.014Z,22.97
2023-03-03T00:25:47.259Z,19.37
2023-03-03T00:28:29.193Z,20.80
2023-03-03T00:31:00.668Z,25.80
2023-03-03T00:33:33.734Z,24.33
2023-03-03T00:36:28.814Z,12.90
2023-03-03T00:39:12.962Z,22.17
2023-03-03T00:41:43.646Z,14.13
2023-03-03T00:44:38.449Z,19.00
2023-03-03T00:47:24.918Z,14.23
2023-03-03T00:49:53.761Z,23.57
2023-03-03T00:52:27.786Z,23.57
2023-03-03T00:54:56.092Z,16.10
2023-03-03T00:57:28.168Z,20.43
2023-03-03T00:59:56.449Z,23.50
2023-03-03T01:02:24.728Z,25.40
2023-03-03T01:04:56.522Z,20.13
2023-03-03T01:07:26.307Z,17.27
2023-03-03T01:09:54.534Z,18.53
2023-03-03T01:12:23.103Z,22.80
2023-03-03T01:14:53.164Z,15.90
2023-03-03T01:17:21.528Z,16.70
2023-03-03T01:19:49.570Z,21.93
2023-03-03T01:22:17.793Z,23.43
2023-03-03T01:24:55.013Z,27.23
2023-03-03T01:27:25.256Z,17.90
2023-03-03T01:29:54.772Z,16.60
2023-03-03T01:32:22.874Z,30.00
2023-03-03T01:34:51.331Z,20.67
2023-03-03T01:37:20.453Z,24.37
2023-03-03T01:39:52.191Z,26.27
2023-03-03T01:42:20.760Z,16.43
2023-03-03T01:44:49.769Z,27.87
2023-03-03T01:47:21.021Z,25.87
2023-03-03T01:49:53.757Z,22.37
2023-03-03T01:52:28.043Z,19.43
2023-03-03T01:55:03.719Z,27.77
2023-03-03T01:57:37.817Z,26.80
2023-03-03T02:00:08.129Z,19.03
2023-03-03T02:02:37.438Z,15.20
2023-03-03T02:05:06.293Z,23.67
2023-03-03T02:07:35.038Z,19.93
2023-03-03T02:10:08.218Z,17.07
2023-03-03T02:12:40.008Z,14.37
2023-03-03T02:15:18.923Z,19.20
2023-03-03T02:17:48.232Z,20.83
2023-03-03T02:20:21.673Z,22.27
2023-03-03T02:22:56.638Z,16.03
2023-03-03T02:25:34.234Z,21.93
2023-03-03T02:28:04.632Z,22.47
2023-03-03T02:30:37.959Z,19.90
2023-03-03T02:33:07.250Z,19.90
2023-03-03T02:35:38.289Z,20.13
2023-03-03T02:38:20.403Z,19.43
2023-03-03T02:40:58.259Z,19.70
2023-03-03T02:43:34.489Z,21.90
2023-03-03T02:46:22.687Z,20.00
2023-03-03T02:48:50.978Z,26.73
2023-03-03T02:51:19.163Z,21.30
2023-03-03T02:53:47.571Z,28.07
2023-03-03T02:56:15.998Z,21.63
2023-03-03T02:58:48.915Z,21.17
2023-03-03T03:01:19.822Z,20.60
2023-03-03T03:03:48.171Z,21.73
2023-03-03T03:06:16.481Z,24.90
2023-03-03T03:08:44.684Z,17.10
2023-03-03T03:11:14.470Z,23.57
2023-03-03T03:13:42.570Z,23.87
2023-03-03T03:16:12.196Z,20.73
2023-03-03T03:18:40.338Z,17.67
2023-03-03T03:21:10.424Z,16.73
2023-03-03T03:23:38.929Z,27.13
2023-03-03T03:26:07.870Z,21.67
2023-03-03T03:28:36.440Z,24.17
2023-03-03T03:31:06.413Z,32.03
2023-03-03T03:33:36.430Z,27.97
2023-03-03T03:36:06.594Z,29.03
2023-03-03T03:38:36.673Z,23.00
2023-03-03T03:41:08.423Z,22.87
2023-03-03T03:43:37.201Z,22.30
2023-03-03T03:46:05.847Z,26.50
2023-03-03T03:48:36.303Z,28.27
2023-03-03T03:51:04.611Z,20.67
2023-03-03T03:53:33.171Z,21.43
2023-03-03T03:56:01.727Z,33.40
2023-03-03T03:58:29.842Z,25.40
2023-03-03T04:01:04.103Z,28.13
2023-03-03T04:03:33.589Z,17.80
2023-03-03T04:06:03.324Z,24.33
2023-03-03T04:08:31.657Z,35.80
2023-03-03T04:10:59.818Z,24.37
2023-03-03T04:13:29.251Z,28.43
2023-03-03T04:15:59.216Z,21.53
2023-03-03T04:18:27.378Z,28.17
2023-03-03T04:20:56.132Z,27.60
2023-03-03T04:23:26.096Z,23.97
2023-03-03T04:25:55.739Z,26.70
2023-03-03T04:28:25.391Z,31.27
2023-03-03T04:30:53.421Z,27.30
2023-03-03T04:33:21.946Z,21.03
2023-03-03T04:35:51.299Z,19.67
2023-03-03T04:38:20.012Z,23.03
2023-03-03T04:40:49.788Z,21.07
2023-03-03T04:43:18.002Z,21.90
2023-03-03T04:45:46.585Z,31.50
2023-03-03T04:48:14.827Z,30.53
2023-03-03T04:50:43.581Z,22.90
2023-03-03T04:53:12.389Z,24.30
2023-03-03T04:55:41.992Z,30.40
2023-03-03T04:58:12.455Z,34.97
2023-03-03T05:00:40.549Z,19.87
2023-03-03T05:03:09.580Z,21.23
2023-03-03T05:05:37.682Z,31.30
2023-03-03T05:08:06.251Z,23.73
2023-03-03T05:10:35.218Z,32.17
2023-03-03T05:13:03.650Z,27.33
2023-03-03T05:15:33.560Z,27.83
2023-03-03T05:18:01.596Z,28.87
2023-03-03T05:20:30.049Z,25.37
2023-03-03T05:22:59.885Z,33.83
2023-03-03T05:25:28.018Z,21.97
2023-03-03T05:27:56.067Z,39.53
2023-03-03T05:30:24.851Z,28.97
2023-03-03T05:32:54.609Z,27.73
2023-03-03T05:35:23.553Z,20.77
2023-03-03T05:37:52.818Z,30.97
2023-03-03T05:40:21.325Z,23.23
2023-03-03T05:42:49.807Z,22.17
2023-03-03T05:45:20.543Z,22.93
2023-03-03T05:47:49.315Z,15.60
2023-03-03T05:50:20.472Z,24.00
2023-03-03T05:52:50.144Z,21.27
2023-03-03T05:55:19.862Z,24.80
2023-03-03T05:57:51.150Z,30.23
2023-03-03T06:00:20.317Z,25.23
2023-03-03T06:02:48.778Z,27.30
2023-03-03T06:05:17.277Z,23.57
2023-03-03T06:07:47.985Z,30.40
2023-03-03T06:10:17.586Z,25.00
2023-03-03T06:12:46.314Z,30.67
2023-03-03T06:15:15.092Z,36.80
2023-03-03T06:17:43.899Z,32.37
2023-03-03T06:20:13.361Z,32.20
2023-03-03T06:22:42.055Z,28.60
2023-03-03T06:25:12.408Z,25.47
2023-03-03T06:27:41.225Z,22.27
2023-03-03T06:30:10.365Z,25.87
2023-03-03T06:32:39.126Z,23.53
2023-03-03T06:35:08.235Z,28.93
2023-03-03T06:37:36.979Z,27.60
2023-03-03T06:40:05.730Z,28.33
2023-03-03T06:42:37.060Z,31.57
2023-03-03T06:45:05.886Z,38.00
2023-03-03T06:47:34.036Z,41.43
2023-03-03T06:50:02.399Z,24.70
2023-03-03T06:52:30.565Z,33.03
2023-03-03T06:55:00.475Z,35.47
2023-03-03T06:57:30.737Z,33.13
2023-03-03T07:00:15.820Z,25.87
2023-03-03T07:02:44.498Z,25.67
2023-03-03T07:05:16.967Z,38.23
2023-03-03T07:07:45.468Z,34.83
2023-03-03T07:10:24.823Z,31.83
2023-03-03T07:12:53.566Z,30.63
2023-03-03T07:15:25.798Z,28.97
2023-03-03T07:17:59.771Z,27.40
2023-03-03T07:20:46.250Z,24.60
2023-03-03T07:23:25.370Z,26.50
2023-03-03T07:25:54.652Z,25.83
2023-03-03T07:28:25.944Z,30.63
2023-03-03T07:30:57.359Z,33.73
2023-03-03T07:33:28.491Z,31.00
2023-03-03T07:35:59.076Z,43.83
2023-03-03T07:38:32.872Z,33.47
2023-03-03T07:41:04.094Z,30.27
2023-03-03T07:43:37.114Z,34.20
2023-03-03T07:46:34.578Z,29.50
2023-03-03T07:49:21.560Z,26.97
2023-03-03T07:52:02.909Z,23.63
2023-03-03T07:54:45.927Z,25.47
2023-03-03T07:57:23.260Z,28.47
2023-03-03T07:59:52.466Z,26.63
2023-03-03T08:02:48.372Z,31.37
2023-03-03T08:05:37.889Z,30.60
2023-03-03T08:08:17.923Z,31.33
2023-03-03T08:10:49.263Z,28.40
2023-03-03T08:13:22.990Z,30.43
2023-03-03T08:15:53.299Z,36.80
2023-03-03T08:18:25.719Z,26.40
2023-03-03T08:20:54.920Z,34.23
2023-03-03T08:23:26.130Z,33.10
2023-03-03T08:25:55.147Z,25.17
2023-03-03T08:28:25.272Z,21.17
2023-03-03T08:31:08.884Z,24.13
2023-03-03T08:33:43.078Z,35.53
2023-03-03T08:36:13.272Z,31.27
2023-03-03T08:38:44.438Z,27.97
2023-03-03T08:41:16.393Z,34.80
2023-03-03T08:43:45.330Z,31.67
2023-03-03T08:46:14.332Z,40.07
2023-03-03T08:48:45.837Z,37.47
2023-03-03T08:51:21.769Z,31.63
2023-03-03T08:53:58.918Z,35.67
2023-03-03T08:56:27.881Z,33.87
2023-03-03T08:59:03.574Z,34.77
2023-03-03T09:01:32.809Z,33.00
2023-03-03T09:04:01.580Z,36.70
2023-03-03T09:06:32.073Z,31.77
2023-03-03T09:09:02.051Z,43.53
2023-03-03T09:11:36.426Z,32.73
2023-03-03T09:14:16.102Z,32.87
2023-03-03T09:16:50.267Z,31.17
2023-03-03T09:19:23.519Z,29.40
2023-03-03T09:21:54.815Z,30.90
2023-03-03T09:24:29.402Z,39.30
2023-03-03T09:26:59.305Z,31.60
2023-03-03T09:29:29.328Z,30.50
2023-03-03T09:31:59.133Z,33.60
2023-03-03T09:34:31.288Z,34.80
2023-03-03T09:37:17.465Z,30.13
2023-03-03T09:39:50.425Z,33.07
2023-03-03T09:42:37.327Z,23.37
2023-03-03T09:45:26.265Z,38.07
2023-03-03T09:48:11.507Z,33.70
2023-03-03T09:50:44.980Z,29.13
2023-03-03T09:53:20.423Z,33.17
2023-03-03T09:55:53.339Z,30.30
2023-03-03T09:58:29.810Z,28.70
2023-03-03T10:01:04.312Z,39.17
2023-03-03T10:03:46.843Z,33.17
2023-03-03T10:06:19.754Z,31.10
2023-03-03T10:08:55.622Z,31.83
2023-03-03T10:11:28.576Z,30.77
2023-03-03T10:14:11.733Z,30.03
2023-03-03T10:16:49.939Z,42.17
2023-03-03T10:19:29.204Z,43.67
2023-03-03T10:22:08.870Z,34.30
2023-03-03T10:24:42.092Z,31.07
2023-03-03T10:27:23.363Z,35.90
2023-03-03T10:29:59.592Z,40.43
2023-03-03T10:32:32.645Z,34.90
2023-03-03T10:35:20.702Z,30.00
2023-03-03T10:37:53.230Z,28.40
2023-03-03T10:40:25.958Z,35.33
2023-03-03T10:43:05.446Z,35.70
2023-03-03T10:45:47.946Z,36.50
2023-03-03T10:48:27.363Z,35.43
2023-03-03T10:50:59.458Z,34.63
2023-03-03T10:53:31.839Z,27.00
2023-03-03T10:56:11.528Z,36.70
2023-03-03T10:58:52.138Z,35.57
2023-03-03T11:01:27.301Z,40.90
2023-03-03T11:04:10.775Z,35.87
2023-03-03T11:09:42.684Z,38.90
2023-03-03T11:12:22.423Z,32.27
2023-03-03T11:14:57.973Z,28.93
2023-03-03T11:17:29.724Z,26.83
2023-03-03T11:20:04.903Z,33.23
2023-03-03T11:22:40.962Z,29.83
2023-03-03T11:25:25.812Z,37.00
2023-03-03T11:28:07.138Z,30.97
2023-03-03T11:30:56.505Z,29.60
2023-03-03T11:33:29.539Z,27.20
2023-03-03T11:36:10.638Z,30.03
2023-03-03T11:38:46.903Z,28.43
2023-03-03T11:41:20.538Z,29.10
2023-03-03T11:43:51.230Z,30.00
2023-03-03T11:46:21.828Z,38.07
2023-03-03T11:48:56.289Z,30.80
2023-03-03T11:51:36.058Z,31.97
2023-03-03T11:54:15.058Z,41.17
2023-03-03T11:56:44.553Z,35.70
2023-03-03T11:59:36.979Z,35.00
2023-03-03T12:02:19.507Z,43.40
2023-03-03T12:04:58.672Z,32.90
2023-03-03T12:07:29.945Z,29.00
2023-03-03T12:10:04.903Z,34.80
2023-03-03T12:12:35.533Z,31.33
2023-03-03T12:15:11.309Z,31.43
2023-03-03T12:17:45.512Z,29.53
2023-03-03T12:20:20.052Z,27.17
2023-03-03T12:23:06.747Z,36.63
2023-03-03T12:25:39.551Z,31.17
2023-03-03T12:28:12.128Z,30.93
2023-03-03T12:30:55.149Z,41.63
2023-03-03T12:33:28.914Z,37.23
2023-03-03T12:36:06.799Z,30.00
2023-03-03T12:38:43.220Z,33.17
2023-03-03T12:41:30.000Z,32.83
2023-03-03T12:44:07.896Z,33.90
2023-03-03T12:46:42.775Z,33.70
2023-03-03T12:49:11.329Z,48.10
2023-03-03T12:51:48.807Z,25.30
2023-03-03T12:54:28.018Z,27.73
2023-03-03T12:56:58.037Z,36.70
2023-03-03T12:59:32.581Z,25.17
2023-03-03T13:02:09.290Z,37.57
2023-03-03T13:04:40.670Z,28.37
2023-03-03T13:07:16.581Z,31.07
2023-03-03T13:09:54.114Z,37.57
2023-03-03T13:12:37.198Z,26.10
2023-03-03T13:15:10.563Z,38.70
2023-03-03T13:17:40.801Z,36.00
2023-03-03T13:20:22.278Z,28.10
2023-03-03T13:22:55.890Z,28.83
2023-03-03T13:25:36.684Z,25.20
2023-03-03T13:28:08.110Z,30.27
2023-03-03T13:30:40.395Z,24.67
2023-03-03T13:33:14.670Z,29.30
2023-03-03T13:35:44.325Z,37.03
2023-03-03T13:38:15.454Z,28.60
2023-03-03T13:40:45.800Z,34.00
2023-03-03T13:43:17.085Z,32.73
2023-03-03T13:45:52.006Z,31.83
2023-03-03T13:48:30.202Z,35.23
2023-03-03T13:51:00.046Z,28.37
2023-03-03T13:53:39.959Z,24.00
2023-03-03T13:56:16.928Z,33.53
2023-03-03T13:58:58.102Z,31.23
2023-03-03T14:01:30.831Z,30.30
2023-03-03T14:04:07.680Z,37.90
2023-03-03T14:06:38.754Z,33.80
2023-03-03T14:09:17.195Z,32.80
2023-03-03T14:11:49.059Z,32.63
2023-03-03T14:14:23.597Z,31.93
2023-03-03T14:16:53.868Z,29.57
2023-03-03T14:19:26.187Z,34.13
2023-03-03T14:22:01.588Z,33.43
2023-03-03T14:24:33.715Z,29.93
2023-03-03T14:27:11.827Z,33.77
2023-03-03T14:30:12.744Z,25.87
2023-03-03T14:32:53.898Z,30.30
2023-03-03T14:35:36.211Z,31.77
2023-03-03T14:38:06.481Z,26.20
2023-03-03T14:40:43.034Z,30.33
2023-03-03T14:43:22.613Z,38.53
2023-03-03T14:45:51.240Z,27.93
2023-03-03T14:48:20.945Z,42.43
2023-03-03T14:50:53.482Z,25.90
2023-03-03T14:53:33.079Z,29.30
2023-03-03T14:58:56.378Z,27.20
2023-03-03T15:01:30.742Z,29.77
2023-03-03T15:04:03.220Z,27.60
2023-03-03T15:06:38.873Z,32.43
2023-03-03T15:09:25.717Z,43.53
2023-03-03T15:11:54.953Z,32.03
2023-03-03T15:14:30.201Z,31.33
2023-03-03T15:17:00.289Z,34.63
2023-03-03T15:19:39.902Z,32.67
2023-03-03T15:22:14.724Z,42.37
2023-03-03T15:24:46.508Z,29.90
2023-03-03T15:27:20.577Z,25.83
2023-03-03T15:30:03.065Z,31.07
2023-03-03T15:32:35.250Z,37.27
2023-03-03T15:35:07.279Z,31.57
2023-03-03T15:37:45.202Z,28.17
2023-03-03T15:40:17.959Z,29.67
2023-03-03T15:42:50.192Z,28.83
2023-03-03T15:45:22.086Z,26.77
2023-03-03T15:51:27.705Z,25.83
2023-03-03T15:54:02.380Z,28.20
2023-03-03T15:56:33.838Z,25.13
2023-03-03T15:59:08.076Z,28.23
2023-03-03T16:01:37.662Z,32.50
2023-03-03T16:04:07.988Z,27.03
2023-03-03T16:06:42.904Z,30.27
2023-03-03T16:09:19.142Z,20.77
2023-03-03T16:11:50.270Z,26.87
2023-03-03T16:14:28.876Z,33.70
2023-03-03T16:17:00.434Z,26.63
2023-03-03T16:19:38.853Z,25.47
2023-03-03T16:22:18.084Z,24.60
2023-03-03T16:24:54.612Z,37.27
2023-03-03T16:27:26.653Z,24.20
2023-03-03T16:30:02.466Z,24.73
2023-03-03T16:32:36.421Z,30.37
2023-03-03T16:35:14.089Z,31.50
2023-03-03T16:37:49.420Z,30.07
2023-03-03T16:40:21.548Z,23.20
2023-03-03T16:42:52.486Z,29.23
2023-03-03T16:45:25.345Z,31.23
2023-03-03T16:48:05.327Z,28.43
2023-03-03T16:50:40.559Z,24.77
2023-03-03T16:53:17.011Z,26.57
2023-03-03T16:55:49.688Z,34.53
2023-03-03T16:58:24.840Z,30.63
2023-03-03T17:00:57.035Z,24.60
2023-03-03T17:03:30.086Z,34.23
2023-03-03T17:06:02.767Z,30.67
2023-03-03T17:08:56.351Z,31.30
2023-03-03T17:11:30.839Z,23.13
2023-03-03T17:14:26.004Z,28.13
2023-03-03T17:16:58.672Z,28.03
2023-03-03T17:19:33.673Z,24.80
2023-03-03T17:22:16.540Z,24.07
2023-03-03T17:25:00.753Z,27.77
2023-03-03T17:27:37.897Z,18.70
2023-03-03T17:30:16.655Z,27.87
2023-03-03T17:32:55.289Z,29.20
2023-03-03T17:35:34.684Z,29.43
2023-03-03T17:38:16.213Z,31.73
2023-03-03T17:40:57.355Z,30.20
2023-03-03T17:43:37.297Z,23.23
2023-03-03T17:46:19.124Z,38.07
2023-03-03T17:49:06.179Z,25.90
2023-03-03T17:51:53.762Z,34.17
2023-03-03T17:54:31.072Z,30.57
2023-03-03T17:57:18.090Z,25.77
2023-03-03T17:59:52.911Z,26.00
2023-03-03T18:02:42.212Z,27.60
2023-03-03T18:05:36.445Z,27.30
2023-03-03T18:08:15.184Z,25.77
2023-03-03T18:11:12.772Z,26.40
2023-03-03T18:14:02.759Z,29.60
2023-03-03T18:16:40.440Z,25.67
2023-03-03T18:19:24.281Z,28.33
2023-03-03T18:21:56.965Z,26.13
2023-03-03T18:24:30.887Z,29.50
2023-03-03T18:27:14.829Z,21.93
2023-03-03T18:30:03.328Z,31.43
2023-03-03T18:32:42.153Z,38.00
2023-03-03T18:35:31.973Z,33.03
2023-03-03T18:38:20.876Z,32.07
2023-03-03T18:40:52.991Z,29.90
2023-03-03T18:44:00.902Z,30.40
2023-03-03T18:47:01.961Z,33.60
2023-03-03T18:49:52.766Z,21.40
2023-03-03T18:52:28.471Z,31.37
2023-03-03T18:55:05.497Z,35.57
2023-03-03T18:57:34.665Z,35.13
2023-03-03T19:00:12.120Z,33.47
2023-03-03T19:02:49.696Z,32.13
2023-03-03T19:05:24.929Z,33.57
2023-03-03T19:07:59.239Z,37.37
2023-03-03T19:10:51.320Z,25.57
2023-03-03T19:13:42.653Z,31.43
2023-03-03T19:16:12.636Z,35.67
2023-03-03T19:19:05.635Z,26.83
2023-03-03T19:21:35.233Z,28.70
2023-03-03T19:24:27.803Z,32.33
2023-03-03T19:27:01.017Z,28.30
2023-03-03T19:29:51.186Z,22.47
2023-03-03T19:32:30.063Z,32.73
2023-03-03T19:35:28.050Z,23.40
2023-03-03T19:38:00.723Z,35.90
2023-03-03T19:40:34.284Z,35.93
2023-03-03T19:43:07.671Z,32.93
2023-03-03T19:45:55.472Z,39.17
2023-03-03T19:48:34.250Z,25.93
2023-03-03T19:51:07.160Z,27.60
2023-03-03T19:53:43.280Z,40.37
2023-03-03T19:56:27.885Z,30.77
2023-03-03T19:59:18.912Z,26.30
2023-03-03T20:01:55.818Z,29.37
2023-03-03T20:04:32.011Z,26.37
2023-03-03T20:07:11.165Z,41.03
2023-03-03T20:09:44.651Z,92.47
2023-03-03T20:12:22.878Z,25.27
2023-03-03T20:14:58.131Z,35.87
2023-03-03T20:17:45.778Z,34.33
2023-03-03T20:20:23.264Z,50.03
2023-03-03T20:22:56.861Z,94.97
2023-03-03T20:25:29.422Z,43.07
2023-03-03T20:28:03.514Z,86.77
2023-03-03T20:30:47.598Z,100.20
2023-03-03T20:33:27.770Z,182.53
2023-03-03T20:36:01.467Z,84.50
2023-03-03T20:38:33.008Z,144.87
2023-03-03T20:41:08.481Z,106.37
2023-03-03T20:43:43.552Z,37.17
2023-03-03T20:46:15.336Z,47.97
2023-03-03T20:48:59.496Z,40.27
2023-03-03T20:51:32.174Z,32.50
2023-03-03T20:54:05.176Z,38.97
2023-03-03T20:56:37.266Z,38.23
2023-03-03T20:59:16.104Z,38.90
2023-03-03T21:01:54.809Z,30.93
2023-03-03T21:04:25.400Z,30.40
2023-03-03T21:06:55.717Z,31.83
2023-03-03T21:09:25.505Z,24.47
2023-03-03T21:11:54.634Z,35.37
2023-03-03T21:14:24.623Z,35.00
2023-03-03T21:16:56.915Z,30.20
2023-03-03T21:19:26.854Z,29.70
2023-03-03T21:21:58.304Z,31.97
2023-03-03T21:24:43.630Z,35.83
2023-03-03T21:27:26.058Z,29.17
2023-03-03T21:30:04.066Z,40.17
2023-03-03T21:32:43.486Z,24.80
2023-03-03T21:35:15.008Z,39.27
2023-03-03T21:43:39.117Z,30.13
2023-03-03T21:46:09.281Z,26.60
2023-03-03T21:48:41.739Z,37.57
2023-03-03T21:51:12.371Z,25.83
2023-03-03T21:53:42.806Z,28.47
2023-03-03T21:56:11.581Z,30.93
2023-03-03T21:58:41.765Z,32.20
2023-03-03T22:01:10.947Z,33.50
2023-03-03T22:03:40.780Z,23.43
2023-03-03T22:06:09.543Z,27.60
2023-03-03T22:08:39.458Z,28.70
2023-03-03T22:11:10.028Z,22.87
2023-03-03T22:13:40.029Z,34.30
2023-03-03T22:16:09.646Z,30.73
2023-03-03T22:18:38.039Z,31.83
2023-03-03T22:21:08.866Z,23.20
2023-03-03T22:23:37.357Z,33.80
2023-03-03T22:26:06.844Z,31.83
2023-03-03T22:28:37.077Z,38.20
2023-03-03T22:31:05.781Z,34.93
2023-03-03T22:33:34.949Z,26.87
2023-03-03T22:36:03.545Z,36.83
2023-03-03T22:38:32.331Z,29.63
2023-03-03T22:41:01.733Z,34.77
2023-03-03T22:43:30.177Z,28.23
2023-03-03T22:46:00.365Z,31.47
2023-03-03T22:48:29.533Z,27.27
2023-03-03T22:50:59.849Z,30.73
2023-03-03T22:53:29.094Z,26.57
2023-03-03T22:55:57.900Z,32.00
2023-03-03T22:58:26.901Z,33.93
2023-03-03T23:00:56.169Z,25.13
2023-03-03T23:03:26.473Z,26.00
2023-03-03T23:05:55.859Z,45.50
2023-03-03T23:08:24.712Z,31.80
2023-03-03T23:10:53.176Z,26.87
2023-03-03T23:13:21.898Z,26.83
2023-03-03T23:15:58.641Z,32.47
2023-03-03T23:18:29.794Z,33.17
2023-03-03T23:20:58.478Z,33.73
2023-03-03T23:23:27.519Z,28.47
2023-03-03T23:25:56.303Z,37.63
2023-03-03T23:28:24.809Z,34.63
2023-03-03T23:30:53.775Z,27.80
2023-03-03T23:33:22.828Z,29.70
2023-03-03T23:35:53.137Z,34.43
2023-03-03T23:38:21.547Z,25.70
2023-03-03T23:40:50.098Z,36.47
2023-03-03T23:43:19.078Z,39.00
2023-03-03T23:45:47.997Z,28.50
2023-03-03T23:48:17.403Z,37.10
2023-03-03T23:50:46.235Z,36.20
2023-03-03T23:53:17.462Z,30.57
2023-03-03T23:55:47.827Z,32.50
2023-03-03T23:58:16.615Z,28.27
